createdAt,value
2018-01-22T00:00:49.452Z,1.94
2018-01-22T00:01:49.419Z,1.99
2018-01-22T00:02:49.396Z,1.97
2018-01-22T00:03:49.378Z,1.98
2018-01-22T00:04:49.355Z,2.04
2018-01-22T00:05:49.330Z,1.99
2018-01-22T00:06:49.316Z,1.94
2018-01-22T00:07:49.294Z,1.90
2018-01-22T00:08:49.266Z,1.98
2018-01-22T00:09:49.256Z,1.97
2018-01-22T00:10:49.230Z,2.04
2018-01-22T00:11:49.214Z,2.01
2018-01-22T00:12:49.196Z,1.99
2018-01-22T00:13:49.169Z,1.99
2018-01-22T00:14:49.143Z,1.93
2018-01-22T00:15:49.124Z,1.90
2018-01-22T00:16:49.108Z,1.93
2018-01-22T00:17:49.094Z,1.94
2018-01-22T00:18:49.059Z,1.91
2018-01-22T00:19:49.039Z,1.90
2018-01-22T00:20:49.021Z,1.87
2018-01-22T00:21:48.998Z,1.85
2018-01-22T00:22:48.970Z,1.83
2018-01-22T00:23:48.959Z,1.79
2018-01-22T00:24:48.931Z,1.73
2018-01-22T00:25:48.919Z,1.72
2018-01-22T00:26:48.886Z,1.73
2018-01-22T00:27:48.877Z,1.76
2018-01-22T00:28:48.844Z,1.64
2018-01-22T00:29:48.835Z,1.73
2018-01-22T00:30:48.809Z,1.71
2018-01-22T00:31:48.780Z,1.64
2018-01-22T00:32:48.761Z,1.72
2018-01-22T00:33:48.741Z,1.62
2018-01-22T00:34:48.723Z,1.60
2018-01-22T00:35:48.703Z,1.61
2018-01-22T00:36:48.677Z,1.50
2018-01-22T00:37:48.661Z,1.51
2018-01-22T00:38:48.642Z,1.58
2018-01-22T00:39:48.612Z,1.55
2018-01-22T00:40:48.604Z,1.50
2018-01-22T00:41:48.569Z,1.44
2018-01-22T00:42:48.559Z,1.40
2018-01-22T00:43:48.534Z,1.44
2018-01-22T00:44:48.524Z,1.47
2018-01-22T00:45:48.494Z,1.37
2018-01-22T00:46:48.476Z,1.42
2018-01-22T00:47:48.450Z,1.42
2018-01-22T00:48:48.436Z,1.37
2018-01-22T00:49:48.408Z,1.32
2018-01-22T00:50:48.386Z,1.34
2018-01-22T00:51:48.379Z,1.39
2018-01-22T00:52:48.347Z,1.32
2018-01-22T00:53:48.321Z,1.28
2018-01-22T00:54:48.300Z,1.33
2018-01-22T00:55:48.280Z,1.29
2018-01-22T00:56:48.259Z,1.36
2018-01-22T00:57:48.238Z,1.42
2018-01-22T00:58:48.212Z,1.39
2018-01-22T00:59:48.192Z,1.37
2018-01-22T01:00:48.175Z,1.34
2018-01-22T01:01:48.154Z,1.34
2018-01-22T01:02:48.137Z,1.34
2018-01-22T01:03:48.112Z,1.36
2018-01-22T01:04:48.090Z,1.28
2018-01-22T01:05:48.064Z,1.32
2018-01-22T01:06:48.040Z,1.25
2018-01-22T01:07:48.020Z,1.29
2018-01-22T01:08:48.007Z,1.37
2018-01-22T01:09:47.975Z,1.37
2018-01-22T01:10:47.952Z,1.29
2018-01-22T01:11:47.934Z,1.34
2018-01-22T01:12:47.914Z,1.37
2018-01-22T01:13:47.895Z,1.44
2018-01-22T01:14:47.875Z,1.28
2018-01-22T01:15:47.847Z,1.32
2018-01-22T01:16:47.821Z,1.33
2018-01-22T01:17:47.818Z,1.34
2018-01-22T01:18:47.783Z,1.36
2018-01-22T01:19:47.756Z,1.37
2018-01-22T01:20:47.738Z,1.40
2018-01-22T01:21:47.727Z,1.37
2018-01-22T01:22:47.703Z,1.50
2018-01-22T01:23:47.697Z,1.42
2018-01-22T01:24:47.658Z,1.43
2018-01-22T01:25:47.630Z,1.57
2018-01-22T01:26:48.080Z,1.40
2018-01-22T01:27:47.592Z,1.51
2018-01-22T01:28:47.586Z,1.40
2018-01-22T01:29:47.560Z,1.40
2018-01-22T01:30:47.525Z,1.51
2018-01-22T01:31:47.546Z,1.46
2018-01-22T01:32:47.489Z,1.47
2018-01-22T01:33:47.463Z,1.51
2018-01-22T01:34:47.442Z,1.51
2018-01-22T01:35:47.426Z,1.42
2018-01-22T01:36:47.394Z,1.47
2018-01-22T01:37:47.385Z,1.54
2018-01-22T01:38:47.362Z,1.58
2018-01-22T01:39:47.344Z,1.54
2018-01-22T01:40:47.316Z,1.60
2018-01-22T01:41:47.295Z,1.60
2018-01-22T01:42:47.282Z,1.57
2018-01-22T01:43:47.256Z,1.55
2018-01-22T01:44:47.242Z,1.57
2018-01-22T01:45:47.220Z,1.55
2018-01-22T01:46:47.185Z,1.55
2018-01-22T01:47:47.166Z,1.43
2018-01-22T01:48:47.144Z,1.54
2018-01-22T01:49:47.127Z,1.46
2018-01-22T01:50:47.102Z,1.36
2018-01-22T01:51:47.082Z,1.40
2018-01-22T01:52:47.067Z,1.40
2018-01-22T01:53:47.036Z,1.51
2018-01-22T01:54:47.026Z,1.50
2018-01-22T01:55:46.997Z,1.50
2018-01-22T01:56:46.970Z,1.46
2018-01-22T01:57:46.946Z,1.46
2018-01-22T01:58:46.930Z,1.47
2018-01-22T01:59:46.917Z,1.51
2018-01-22T02:00:46.907Z,1.44
2018-01-22T02:01:46.869Z,1.52
2018-01-22T02:02:46.846Z,1.44
2018-01-22T02:03:46.829Z,1.47
2018-01-22T02:04:46.801Z,1.50
2018-01-22T02:05:46.785Z,1.46
2018-01-22T02:06:46.766Z,1.46
2018-01-22T02:07:46.734Z,1.46
2018-01-22T02:08:46.724Z,1.40
2018-01-22T02:09:46.696Z,1.40
2018-01-22T02:10:46.684Z,1.46
2018-01-22T02:11:46.653Z,1.44
2018-01-22T02:12:46.633Z,1.47
2018-01-22T02:13:46.614Z,1.50
2018-01-22T02:14:46.602Z,1.50
2018-01-22T02:15:46.570Z,1.50
2018-01-22T02:16:46.547Z,1.55
2018-01-22T02:17:46.532Z,1.55
2018-01-22T02:18:46.506Z,1.46
2018-01-22T02:19:46.477Z,1.52
2018-01-22T02:20:46.468Z,1.43
2018-01-22T02:21:46.441Z,1.47
2018-01-22T02:22:46.422Z,1.50
2018-01-22T02:23:46.397Z,1.42
2018-01-22T02:24:46.387Z,1.50
2018-01-22T02:25:46.374Z,1.54
2018-01-22T02:26:46.339Z,1.46
2018-01-22T02:27:46.320Z,1.57
2018-01-22T02:28:46.310Z,1.46
2018-01-22T02:29:46.282Z,1.44
2018-01-22T02:30:46.259Z,1.50
2018-01-22T02:31:46.235Z,1.55
2018-01-22T02:32:46.215Z,1.52
2018-01-22T02:33:46.186Z,1.57
2018-01-22T02:34:46.167Z,1.57
2018-01-22T02:35:46.140Z,1.58
2018-01-22T02:36:46.122Z,1.61
2018-01-22T02:37:46.109Z,1.57
2018-01-22T02:38:46.098Z,1.61
2018-01-22T02:39:46.060Z,1.62
2018-01-22T02:40:46.037Z,1.62
2018-01-22T02:41:46.018Z,1.62
2018-01-22T02:42:46.007Z,1.62
2018-01-22T02:43:45.986Z,1.58
2018-01-22T02:44:45.951Z,1.62
2018-01-22T02:45:45.935Z,1.57
2018-01-22T02:46:45.910Z,1.58
2018-01-22T02:47:45.887Z,1.60
2018-01-22T02:48:45.874Z,1.60
2018-01-22T02:49:45.855Z,1.60
2018-01-22T02:50:45.847Z,1.65
2018-01-22T02:51:45.809Z,1.58
2018-01-22T02:52:45.810Z,1.68
2018-01-22T02:53:45.767Z,1.69
2018-01-22T02:54:45.738Z,1.71
2018-01-22T02:55:45.720Z,1.69
2018-01-22T02:56:45.694Z,1.65
2018-01-22T02:57:45.674Z,1.69
2018-01-22T02:58:45.665Z,1.68
2018-01-22T02:59:45.627Z,1.69
2018-01-22T03:00:45.604Z,1.69
2018-01-22T03:01:45.591Z,1.64
2018-01-22T03:02:45.565Z,1.72
2018-01-22T03:03:45.553Z,1.72
2018-01-22T03:04:45.530Z,1.72
2018-01-22T03:05:45.498Z,1.71
2018-01-22T03:06:45.482Z,1.73
2018-01-22T03:07:45.463Z,1.72
2018-01-22T03:08:45.460Z,1.72
2018-01-22T03:09:45.425Z,1.58
2018-01-22T03:10:45.393Z,1.58
2018-01-22T03:11:45.380Z,1.64
2018-01-22T03:12:45.361Z,1.71
2018-01-22T03:13:45.335Z,1.69
2018-01-22T03:14:45.310Z,1.64
2018-01-22T03:15:45.300Z,1.68
2018-01-22T03:16:45.272Z,1.60
2018-01-22T03:17:45.255Z,1.64
2018-01-22T03:18:45.237Z,1.68
2018-01-22T03:19:45.215Z,1.72
2018-01-22T03:20:45.183Z,1.72
2018-01-22T03:21:45.167Z,1.71
2018-01-22T03:22:45.138Z,1.72
2018-01-22T03:23:45.125Z,1.75
2018-01-22T03:24:45.103Z,1.72
2018-01-22T03:25:45.081Z,1.75
2018-01-22T03:26:45.056Z,1.75
2018-01-22T03:27:45.042Z,1.69
2018-01-22T03:28:45.021Z,1.72
2018-01-22T03:29:44.998Z,1.72
2018-01-22T03:30:44.973Z,1.76
2018-01-22T03:31:44.947Z,1.75
2018-01-22T03:32:44.935Z,1.75
2018-01-22T03:33:44.909Z,1.82
2018-01-22T03:34:44.893Z,1.75
2018-01-22T03:35:44.864Z,1.76
2018-01-22T03:36:44.843Z,1.79
2018-01-22T03:37:44.833Z,1.73
2018-01-22T03:38:44.805Z,1.83
2018-01-22T03:39:44.785Z,1.80
2018-01-22T03:40:44.778Z,1.83
2018-01-22T03:41:44.735Z,1.73
2018-01-22T03:42:44.718Z,1.76
2018-01-22T03:43:44.703Z,1.72
2018-01-22T03:44:44.671Z,1.87
2018-01-22T03:45:44.659Z,1.80
2018-01-22T03:46:44.634Z,1.89
2018-01-22T03:47:44.607Z,1.71
2018-01-22T03:48:44.601Z,1.73
2018-01-22T03:49:44.572Z,1.80
2018-01-22T03:50:44.553Z,1.89
2018-01-22T03:51:44.531Z,1.90
2018-01-22T03:52:44.518Z,1.76
2018-01-22T03:53:44.486Z,1.87
2018-01-22T03:54:44.473Z,1.79
2018-01-22T03:55:44.441Z,1.75
2018-01-22T03:56:44.418Z,1.73
2018-01-22T03:57:44.402Z,1.85
2018-01-22T03:58:44.380Z,1.87
2018-01-22T03:59:44.360Z,1.82
2018-01-22T04:00:44.338Z,1.85
2018-01-22T04:01:44.316Z,1.87
2018-01-22T04:02:44.293Z,1.82
2018-01-22T04:03:44.271Z,1.89
2018-01-22T04:04:44.261Z,1.82
2018-01-22T04:05:44.234Z,1.78
2018-01-22T04:06:44.215Z,1.82
2018-01-22T04:07:44.194Z,1.83
2018-01-22T04:08:44.167Z,1.87
2018-01-22T04:09:44.142Z,1.83
2018-01-22T04:10:44.129Z,1.83
2018-01-22T04:11:44.135Z,1.83
2018-01-22T04:12:44.084Z,1.87
2018-01-22T04:13:44.058Z,1.80
2018-01-22T04:14:44.039Z,1.82
2018-01-22T04:15:44.026Z,1.87
2018-01-22T04:16:44.001Z,1.85
2018-01-22T04:17:43.994Z,1.73
2018-01-22T04:18:43.954Z,1.85
2018-01-22T04:19:43.941Z,1.73
2018-01-22T04:20:43.908Z,1.83
2018-01-22T04:21:43.888Z,1.87
2018-01-22T04:22:43.869Z,1.87
2018-01-22T04:23:43.847Z,1.89
2018-01-22T04:24:43.827Z,1.87
2018-01-22T04:25:43.805Z,1.87
2018-01-22T04:26:43.779Z,1.82
2018-01-22T04:27:43.773Z,1.83
2018-01-22T04:28:43.738Z,1.90
2018-01-22T04:29:43.725Z,1.82
2018-01-22T04:30:43.703Z,1.80
2018-01-22T04:31:43.677Z,1.87
2018-01-22T04:32:43.660Z,1.82
2018-01-22T04:33:43.635Z,1.83
2018-01-22T04:34:43.612Z,1.90
2018-01-22T04:35:43.603Z,1.87
2018-01-22T04:36:43.574Z,1.85
2018-01-22T04:37:43.556Z,1.97
2018-01-22T04:38:43.532Z,1.87
2018-01-22T04:39:43.513Z,1.82
2018-01-22T04:40:43.484Z,1.85
2018-01-22T04:41:43.462Z,1.87
2018-01-22T04:42:43.438Z,1.93
2018-01-22T04:43:43.419Z,1.87
2018-01-22T04:44:43.406Z,1.93
2018-01-22T04:45:43.381Z,1.90
2018-01-22T04:46:43.361Z,1.87
2018-01-22T04:47:43.329Z,1.89
2018-01-22T04:48:43.313Z,1.87
2018-01-22T04:49:43.291Z,1.90
2018-01-22T04:50:43.269Z,1.87
2018-01-22T04:51:43.257Z,1.82
2018-01-22T04:52:43.236Z,1.80
2018-01-22T04:53:43.208Z,1.83
2018-01-22T04:54:43.192Z,1.89
2018-01-22T04:55:43.170Z,1.89
2018-01-22T04:56:43.150Z,1.85
2018-01-22T04:57:43.121Z,1.87
2018-01-22T04:58:43.106Z,1.80
2018-01-22T04:59:43.092Z,1.90
2018-01-22T05:00:43.061Z,1.87
2018-01-22T05:01:43.041Z,1.80
2018-01-22T05:02:43.020Z,1.89
2018-01-22T05:03:42.997Z,1.93
2018-01-22T05:04:42.978Z,1.83
2018-01-22T05:05:42.959Z,1.87
2018-01-22T05:06:42.936Z,1.89
2018-01-22T05:07:42.920Z,1.90
2018-01-22T05:08:42.895Z,1.89
2018-01-22T05:09:42.872Z,1.90
2018-01-22T05:10:42.866Z,1.97
2018-01-22T05:11:42.832Z,1.98
2018-01-22T05:12:42.809Z,1.89
2018-01-22T05:13:42.786Z,1.93
2018-01-22T05:14:42.768Z,1.91
2018-01-22T05:15:42.751Z,2.02
2018-01-22T05:16:42.733Z,1.90
2018-01-22T05:17:42.707Z,1.94
2018-01-22T05:18:42.678Z,1.91
2018-01-22T05:19:42.659Z,1.89
2018-01-22T05:20:42.641Z,1.94
2018-01-22T05:21:42.615Z,1.93
2018-01-22T05:22:42.605Z,1.90
2018-01-22T05:23:42.577Z,1.94
2018-01-22T05:24:42.560Z,1.99
2018-01-22T05:25:42.539Z,1.99
2018-01-22T05:26:42.509Z,1.98
2018-01-22T05:27:42.490Z,2.02
2018-01-22T05:28:42.477Z,1.97
2018-01-22T05:29:42.457Z,1.97
2018-01-22T05:30:42.449Z,1.97
2018-01-22T05:31:42.409Z,1.89
2018-01-22T05:32:42.390Z,1.91
2018-01-22T05:33:42.380Z,1.91
2018-01-22T05:34:42.342Z,1.91
2018-01-22T05:35:42.322Z,1.94
2018-01-22T05:36:42.303Z,1.98
2018-01-22T05:37:42.284Z,1.97
2018-01-22T05:38:42.265Z,1.94
2018-01-22T05:39:42.238Z,2.01
2018-01-22T05:40:42.220Z,1.93
2018-01-22T05:41:42.202Z,2.10
2018-01-22T05:42:42.176Z,1.94
2018-01-22T05:43:42.151Z,2.06
2018-01-22T05:44:42.138Z,2.04
2018-01-22T05:45:42.110Z,2.09
2018-01-22T05:46:42.093Z,2.06
2018-01-22T05:47:42.071Z,1.98
2018-01-22T05:48:42.048Z,2.08
2018-01-22T05:49:42.025Z,2.06
2018-01-22T05:50:42.032Z,2.01
2018-01-22T05:51:41.980Z,2.04
2018-01-22T05:52:41.958Z,2.09
2018-01-22T05:53:41.945Z,2.08
2018-01-22T05:54:41.919Z,2.10
2018-01-22T05:55:41.906Z,2.10
2018-01-22T05:56:41.882Z,2.04
2018-01-22T05:57:41.857Z,2.08
2018-01-22T05:58:41.839Z,2.06
2018-01-22T05:59:41.819Z,2.08
2018-01-22T06:00:41.800Z,2.06
2018-01-22T06:01:41.777Z,2.08
2018-01-22T06:02:41.765Z,2.01
2018-01-22T06:03:41.732Z,2.06
2018-01-22T06:04:41.716Z,2.01
2018-01-22T06:05:41.688Z,2.01
2018-01-22T06:06:41.694Z,1.98
2018-01-22T06:07:41.652Z,2.06
2018-01-22T06:08:41.621Z,2.04
2018-01-22T06:09:41.614Z,1.99
2018-01-22T06:10:41.601Z,2.08
2018-01-22T06:11:41.563Z,2.08
2018-01-22T06:12:41.547Z,1.99
2018-01-22T06:13:41.521Z,2.08
2018-01-22T06:14:41.505Z,2.09
2018-01-22T06:15:41.486Z,2.04
2018-01-22T06:16:41.469Z,1.98
2018-01-22T06:17:41.459Z,1.99
2018-01-22T06:18:41.434Z,2.09
2018-01-22T06:19:41.412Z,2.09
2018-01-22T06:20:41.377Z,2.09
2018-01-22T06:21:41.352Z,2.08
2018-01-22T06:22:41.332Z,2.06
2018-01-22T06:23:41.319Z,2.10
2018-01-22T06:24:41.294Z,2.06
2018-01-22T06:25:41.284Z,2.01
2018-01-22T06:26:41.255Z,2.06
2018-01-22T06:27:41.229Z,2.10
2018-01-22T06:28:41.215Z,2.08
2018-01-22T06:29:41.196Z,2.09
2018-01-22T06:30:41.168Z,2.04
2018-01-22T06:31:41.143Z,2.08
2018-01-22T06:32:41.117Z,2.09
2018-01-22T06:33:41.101Z,2.15
2018-01-22T06:34:41.079Z,2.12
2018-01-22T06:35:41.057Z,2.10
2018-01-22T06:36:41.035Z,2.13
2018-01-22T06:37:41.024Z,2.12
2018-01-22T06:38:40.997Z,2.12
2018-01-22T06:39:40.975Z,2.08
2018-01-22T06:40:40.952Z,2.08
2018-01-22T06:41:40.933Z,2.08
2018-01-22T06:42:40.910Z,2.19
2018-01-22T06:43:40.885Z,2.16
2018-01-22T06:44:40.885Z,2.20
2018-01-22T06:45:40.853Z,2.26
2018-01-22T06:46:40.830Z,2.13
2018-01-22T06:47:40.808Z,2.23
2018-01-22T06:48:40.789Z,2.19
2018-01-22T06:49:40.833Z,2.19
2018-01-22T06:50:40.741Z,2.20
2018-01-22T06:51:40.719Z,2.16
2018-01-22T06:52:40.703Z,2.27
2018-01-22T06:53:40.693Z,2.20
2018-01-22T06:54:40.665Z,2.22
2018-01-22T06:55:40.633Z,2.22
2018-01-22T06:56:40.623Z,2.30
2018-01-22T06:57:40.588Z,2.23
2018-01-22T06:58:40.585Z,2.30
2018-01-22T06:59:40.570Z,2.17
2018-01-22T07:00:40.543Z,2.19
2018-01-22T07:01:40.511Z,2.26
2018-01-22T07:02:40.498Z,2.20
2018-01-22T07:03:40.472Z,2.19
2018-01-22T07:04:40.444Z,2.23
2018-01-22T07:05:40.425Z,2.20
2018-01-22T07:06:40.413Z,2.19
2018-01-22T07:07:40.371Z,2.19
2018-01-22T07:08:40.368Z,2.19
2018-01-22T07:09:40.342Z,2.15
2018-01-22T07:10:40.320Z,2.28
2018-01-22T07:11:40.308Z,2.28
2018-01-22T07:12:40.293Z,2.23
2018-01-22T07:13:40.260Z,2.22
2018-01-22T07:14:40.234Z,2.33
2018-01-22T07:15:40.219Z,2.34
2018-01-22T07:16:40.283Z,2.23
2018-01-22T07:17:40.180Z,2.31
2018-01-22T07:18:40.164Z,2.22
2018-01-22T07:19:40.132Z,2.27
2018-01-22T07:20:40.117Z,2.22
2018-01-22T07:21:40.094Z,2.22
2018-01-22T07:22:40.065Z,2.27
2018-01-22T07:23:40.048Z,2.27
2018-01-22T07:24:40.044Z,2.12
2018-01-22T07:25:40.012Z,2.37
2018-01-22T07:26:39.986Z,2.26
2018-01-22T07:27:39.967Z,2.23
2018-01-22T07:28:39.948Z,2.30
2018-01-22T07:29:39.922Z,2.37
2018-01-22T07:30:39.903Z,2.31
2018-01-22T07:31:39.897Z,2.23
2018-01-22T07:32:39.860Z,2.27
2018-01-22T07:33:39.844Z,2.37
2018-01-22T07:34:39.808Z,2.28
2018-01-22T07:35:39.798Z,2.27
2018-01-22T07:36:39.782Z,2.38
2018-01-22T07:37:39.763Z,2.37
2018-01-22T07:38:39.725Z,2.37
2018-01-22T07:39:39.719Z,2.30
2018-01-22T07:40:39.703Z,2.41
2018-01-22T07:41:39.733Z,2.40
2018-01-22T07:42:39.708Z,2.38
2018-01-22T07:43:39.634Z,2.35
2018-01-22T07:44:39.611Z,2.38
2018-01-22T07:45:39.599Z,2.35
2018-01-22T07:46:39.571Z,2.41
2018-01-22T07:47:39.551Z,2.37
2018-01-22T07:48:39.526Z,2.35
2018-01-22T07:49:39.504Z,2.35
2018-01-22T07:50:39.481Z,2.37
2018-01-22T07:51:39.471Z,2.38
2018-01-22T07:52:39.465Z,2.51
2018-01-22T07:53:39.419Z,2.37
2018-01-22T07:54:39.403Z,2.38
2018-01-22T07:55:39.377Z,2.40
2018-01-22T07:56:39.358Z,2.40
2018-01-22T07:57:39.336Z,2.44
2018-01-22T07:58:39.320Z,2.37
2018-01-22T07:59:39.298Z,2.37
2018-01-22T08:00:39.286Z,2.46
2018-01-22T08:01:39.266Z,2.46
2018-01-22T08:02:39.237Z,2.46
2018-01-22T08:03:39.218Z,2.46
2018-01-22T08:04:39.198Z,2.40
2018-01-22T08:05:39.179Z,2.46
2018-01-22T08:06:39.159Z,2.48
2018-01-22T08:07:39.131Z,2.48
2018-01-22T08:08:39.128Z,2.53
2018-01-22T08:09:39.089Z,2.38
2018-01-22T08:10:39.070Z,2.46
2018-01-22T08:11:39.051Z,2.49
2018-01-22T08:12:39.029Z,2.46
2018-01-22T08:13:39.006Z,2.49
2018-01-22T08:14:38.987Z,2.51
2018-01-22T08:15:38.965Z,2.45
2018-01-22T08:16:38.946Z,2.63
2018-01-22T08:17:38.920Z,2.56
2018-01-22T08:18:38.904Z,2.53
2018-01-22T08:19:38.878Z,2.51
2018-01-22T08:20:38.866Z,2.66
2018-01-22T08:21:38.842Z,2.61
2018-01-22T08:22:38.823Z,2.61
2018-01-22T08:23:38.797Z,2.61
2018-01-22T08:24:38.775Z,2.70
2018-01-22T08:25:38.752Z,2.66
2018-01-22T08:26:38.729Z,2.73
2018-01-22T08:27:38.717Z,2.71
2018-01-22T08:28:38.685Z,2.73
2018-01-22T08:29:38.672Z,2.74
2018-01-22T08:30:38.649Z,2.81
2018-01-22T08:31:38.633Z,2.81
2018-01-22T08:32:38.622Z,2.76
2018-01-22T08:33:38.587Z,2.79
2018-01-22T08:34:38.581Z,2.77
2018-01-22T08:35:38.552Z,2.82
2018-01-22T08:36:38.530Z,2.87
2018-01-22T08:37:38.498Z,2.85
2018-01-22T08:38:38.485Z,2.87
2018-01-22T08:39:38.469Z,2.88
2018-01-22T08:40:38.444Z,2.92
2018-01-22T08:41:38.429Z,2.92
2018-01-22T08:42:38.396Z,3.02
2018-01-22T08:43:38.383Z,3.00
2018-01-22T08:44:38.360Z,3.05
2018-01-22T08:45:38.342Z,3.00
2018-01-22T08:46:38.320Z,2.97
2018-01-22T08:47:38.303Z,3.06
2018-01-22T08:48:38.277Z,3.07
2018-01-22T08:49:38.258Z,3.05
2018-01-22T08:50:38.260Z,2.98
2018-01-22T08:51:38.223Z,3.07
2018-01-22T08:52:38.191Z,3.10
2018-01-22T08:53:38.170Z,3.07
2018-01-22T08:54:38.156Z,3.06
2018-01-22T08:55:38.127Z,3.06
2018-01-22T08:56:38.108Z,3.12
2018-01-22T08:57:38.099Z,3.06
2018-01-22T08:58:38.067Z,3.07
2018-01-22T08:59:38.054Z,3.07
2018-01-22T09:00:38.029Z,3.07
2018-01-22T09:01:38.010Z,3.09
2018-01-22T09:02:37.988Z,3.25
2018-01-22T09:03:37.972Z,3.25
2018-01-22T09:04:37.946Z,3.28
2018-01-22T09:05:37.926Z,3.23
2018-01-22T09:06:37.911Z,3.20
2018-01-22T09:07:37.891Z,3.23
2018-01-22T09:08:37.865Z,3.25
2018-01-22T09:09:37.841Z,3.31
2018-01-22T09:10:37.822Z,3.25
2018-01-22T09:11:37.806Z,3.33
2018-01-22T09:12:37.784Z,3.39
2018-01-22T09:13:37.769Z,3.31
2018-01-22T09:14:37.745Z,3.31
2018-01-22T09:15:37.729Z,3.44
2018-01-22T09:16:37.704Z,3.47
2018-01-22T09:17:37.681Z,3.47
2018-01-22T09:18:37.659Z,3.46
2018-01-22T09:19:37.638Z,3.43
2018-01-22T09:20:37.619Z,3.44
2018-01-22T09:21:37.600Z,3.47
2018-01-22T09:22:37.589Z,3.43
2018-01-22T09:23:37.555Z,3.44
2018-01-22T09:24:37.539Z,3.43
2018-01-22T09:25:37.520Z,3.44
2018-01-22T09:26:37.503Z,3.54
2018-01-22T09:27:37.485Z,3.50
2018-01-22T09:28:37.457Z,3.58
2018-01-22T09:29:37.441Z,3.49
2018-01-22T09:30:37.422Z,3.60
2018-01-22T09:31:37.406Z,3.57
2018-01-22T09:32:37.374Z,3.65
2018-01-22T09:33:37.367Z,3.62
2018-01-22T09:34:37.335Z,3.58
2018-01-22T09:35:37.323Z,3.54
2018-01-22T09:36:37.303Z,3.71
2018-01-22T09:37:37.274Z,3.65
2018-01-22T09:38:37.256Z,3.58
2018-01-22T09:39:37.239Z,3.64
2018-01-22T09:40:37.220Z,3.71
2018-01-22T09:41:37.234Z,3.75
2018-01-22T09:42:37.172Z,3.80
2018-01-22T09:43:37.158Z,3.85
2018-01-22T09:44:37.137Z,3.85
2018-01-22T09:45:37.117Z,3.82
2018-01-22T09:46:37.095Z,3.80
2018-01-22T09:47:37.086Z,3.76
2018-01-22T09:48:37.058Z,3.88
2018-01-22T09:49:37.045Z,3.89
2018-01-22T09:50:37.023Z,3.89
2018-01-22T09:51:36.991Z,3.86
2018-01-22T09:52:36.983Z,3.90
2018-01-22T09:53:36.960Z,3.94
2018-01-22T09:54:36.937Z,3.90
2018-01-22T09:55:36.918Z,3.92
2018-01-22T09:56:36.896Z,3.92
2018-01-22T09:57:36.869Z,3.92
2018-01-22T09:58:36.866Z,3.96
2018-01-22T09:59:36.844Z,4.00
2018-01-22T10:00:36.839Z,4.01
2018-01-22T10:01:36.799Z,3.98
2018-01-22T10:02:36.773Z,4.00
2018-01-22T10:03:36.747Z,4.12
2018-01-22T10:04:36.741Z,4.08
2018-01-22T10:05:36.720Z,4.01
2018-01-22T10:06:36.706Z,4.08
2018-01-22T10:07:36.670Z,4.08
2018-01-22T10:08:36.657Z,4.08
2018-01-22T10:09:36.640Z,4.12
2018-01-22T10:10:36.613Z,4.14
2018-01-22T10:11:36.591Z,4.24
2018-01-22T10:12:36.581Z,4.18
2018-01-22T10:13:36.555Z,4.18
2018-01-22T10:14:36.530Z,4.26
2018-01-22T10:15:36.520Z,4.24
2018-01-22T10:16:36.489Z,4.28
2018-01-22T10:17:36.476Z,4.34
2018-01-22T10:18:36.465Z,4.36
2018-01-22T10:19:36.430Z,4.34
2018-01-22T10:20:36.417Z,4.39
2018-01-22T10:21:36.392Z,4.34
2018-01-22T10:22:36.376Z,4.42
2018-01-22T10:23:36.350Z,4.36
2018-01-22T10:24:36.334Z,4.37
2018-01-22T10:25:36.317Z,4.43
2018-01-22T10:26:36.296Z,4.54
2018-01-22T10:27:36.283Z,4.44
2018-01-22T10:28:36.256Z,4.47
2018-01-22T10:29:36.247Z,4.50
2018-01-22T10:30:36.217Z,4.58
2018-01-22T10:31:36.198Z,4.59
2018-01-22T10:32:36.178Z,4.61
2018-01-22T10:33:36.160Z,4.58
2018-01-22T10:34:36.142Z,4.57
2018-01-22T10:35:36.115Z,4.65
2018-01-22T10:36:36.102Z,4.67
2018-01-22T10:37:36.123Z,4.61
2018-01-22T10:38:36.067Z,4.65
2018-01-22T10:39:36.035Z,4.62
2018-01-22T10:40:36.026Z,4.70
2018-01-22T10:41:36.000Z,4.65
2018-01-22T10:42:35.984Z,4.80
2018-01-22T10:43:35.962Z,4.75
2018-01-22T10:44:35.946Z,4.83
2018-01-22T10:45:35.926Z,4.94
2018-01-22T10:46:35.904Z,5.07
2018-01-22T10:47:35.882Z,5.04
2018-01-22T10:48:35.869Z,5.02
2018-01-22T10:49:35.844Z,5.07
2018-01-22T10:50:35.827Z,5.09
2018-01-22T10:51:35.811Z,5.13
2018-01-22T10:52:35.785Z,5.23
2018-01-22T10:53:35.766Z,5.20
2018-01-22T10:54:35.851Z,5.23
2018-01-22T10:55:35.729Z,5.32
2018-01-22T10:56:35.709Z,5.37
2018-01-22T10:57:35.693Z,5.40
2018-01-22T10:58:35.671Z,5.48
2018-01-22T10:59:35.660Z,5.43
2018-01-22T11:00:35.630Z,5.55
2018-01-22T11:01:35.620Z,5.60
2018-01-22T11:02:35.601Z,5.55
2018-01-22T11:03:35.579Z,5.66
2018-01-22T11:04:35.560Z,5.63
2018-01-22T11:05:35.543Z,5.63
2018-01-22T11:06:35.518Z,5.63
2018-01-22T11:07:35.497Z,5.71
2018-01-22T11:08:35.479Z,5.74
2018-01-22T11:09:35.476Z,5.71
2018-01-22T11:10:35.445Z,5.73
2018-01-22T11:11:35.429Z,5.73
2018-01-22T11:12:35.414Z,5.68
2018-01-22T11:13:35.384Z,5.67
2018-01-22T11:14:35.375Z,5.75
2018-01-22T11:15:35.379Z,5.68
2018-01-22T11:16:35.340Z,5.67
2018-01-22T11:17:35.317Z,5.67
2018-01-22T11:18:35.297Z,5.70
2018-01-22T11:19:35.282Z,5.73
2018-01-22T11:20:35.255Z,5.71
2018-01-22T11:21:35.236Z,5.67
2018-01-22T11:22:35.219Z,5.82
2018-01-22T11:23:35.203Z,5.73
2018-01-22T11:24:35.181Z,5.81
2018-01-22T11:25:35.165Z,5.77
2018-01-22T11:26:35.146Z,5.68
2018-01-22T11:27:35.139Z,5.86
2018-01-22T11:28:35.108Z,5.86
2018-01-22T11:29:35.086Z,5.83
2018-01-22T11:30:35.076Z,5.92
2018-01-22T11:31:35.051Z,5.81
2018-01-22T11:32:35.042Z,5.92
2018-01-22T11:33:35.013Z,5.77
2018-01-22T11:34:34.990Z,5.82
2018-01-22T11:35:34.978Z,5.88
2018-01-22T11:36:34.961Z,5.88
2018-01-22T11:37:34.942Z,5.95
2018-01-22T11:38:34.930Z,5.91
2018-01-22T11:39:34.911Z,5.96
2018-01-22T11:40:34.885Z,6.03
2018-01-22T11:41:34.872Z,5.96
2018-01-22T11:42:34.846Z,6.01
2018-01-22T11:43:34.833Z,6.13
2018-01-22T11:44:34.819Z,6.00
2018-01-22T11:45:34.791Z,6.03
2018-01-22T11:46:34.769Z,6.10
2018-01-22T11:47:34.759Z,6.16
2018-01-22T11:48:34.749Z,6.18
2018-01-22T11:49:34.717Z,6.19
2018-01-22T11:50:34.695Z,6.26
2018-01-22T11:51:34.686Z,6.43
2018-01-22T11:52:34.661Z,6.38
2018-01-22T11:53:34.643Z,6.36
2018-01-22T11:54:34.623Z,6.44
2018-01-22T11:55:34.609Z,6.47
2018-01-22T11:56:34.585Z,6.62
2018-01-22T11:57:34.572Z,6.59
2018-01-22T11:58:34.553Z,6.66
2018-01-22T11:59:34.543Z,6.69
2018-01-22T12:00:34.511Z,6.68
2018-01-22T12:01:34.517Z,6.81
2018-01-22T12:02:34.486Z,6.71
2018-01-22T12:03:34.460Z,6.63
2018-01-22T12:04:34.447Z,6.66
2018-01-22T12:05:34.424Z,6.53
2018-01-22T12:06:34.409Z,6.50
2018-01-22T12:07:34.393Z,6.48
2018-01-22T12:08:34.377Z,6.33
2018-01-22T12:09:34.354Z,6.36
2018-01-22T12:10:34.341Z,6.36
2018-01-22T12:11:34.319Z,6.29
2018-01-22T12:12:34.297Z,6.16
2018-01-22T12:13:34.284Z,6.18
2018-01-22T12:14:34.265Z,6.13
2018-01-22T12:15:34.251Z,6.01
2018-01-22T12:16:34.223Z,6.07
2018-01-22T12:17:34.213Z,6.00
2018-01-22T12:18:34.198Z,6.00
2018-01-22T12:19:34.178Z,6.04
2018-01-22T12:20:34.152Z,5.98
2018-01-22T12:21:34.133Z,5.98
2018-01-22T12:22:34.117Z,6.03
2018-01-22T12:23:34.111Z,5.98
2018-01-22T12:24:34.079Z,5.92
2018-01-22T12:25:34.059Z,5.98
2018-01-22T12:26:34.049Z,5.89
2018-01-22T12:27:34.030Z,5.95
2018-01-22T12:28:34.012Z,5.81
2018-01-22T12:29:43.640Z,5.78
2018-01-22T12:31:27.372Z,5.74
2018-01-22T12:32:27.326Z,5.71
2018-01-22T12:33:27.299Z,5.71
2018-01-22T12:34:27.267Z,5.73
2018-01-22T12:35:27.257Z,5.83
2018-01-22T12:36:27.234Z,5.86
2018-01-22T12:37:27.212Z,5.89
2018-01-22T12:38:27.193Z,6.01
2018-01-22T12:39:27.177Z,5.95
2018-01-22T12:40:27.173Z,6.04
2018-01-22T12:41:27.154Z,5.98
2018-01-22T12:42:27.126Z,6.01
2018-01-22T12:43:27.106Z,5.98
2018-01-22T12:44:27.087Z,5.96
2018-01-22T12:45:27.074Z,6.03
2018-01-22T12:46:27.058Z,5.95
2018-01-22T12:47:27.039Z,6.01
2018-01-22T12:48:27.010Z,6.03
2018-01-22T12:49:26.997Z,6.07
2018-01-22T12:50:26.972Z,6.06
2018-01-22T12:51:26.963Z,6.04
2018-01-22T12:52:26.946Z,6.01
2018-01-22T12:53:26.965Z,6.09
2018-01-22T12:54:26.904Z,6.07
2018-01-22T12:55:26.885Z,6.06
2018-01-22T12:56:26.956Z,5.92
2018-01-22T12:57:26.857Z,5.86
2018-01-22T12:58:26.824Z,5.85
2018-01-22T12:59:26.812Z,6.03
2018-01-22T13:00:26.796Z,6.00
2018-01-22T13:01:26.788Z,5.96
2018-01-22T13:02:26.763Z,6.04
2018-01-22T13:03:26.741Z,5.98
2018-01-22T13:04:26.728Z,6.04
2018-01-22T13:05:26.704Z,6.03
2018-01-22T13:06:26.674Z,5.98
2018-01-22T13:07:26.659Z,6.04
2018-01-22T13:08:26.640Z,5.95
2018-01-22T13:09:26.627Z,6.06
2018-01-22T13:10:26.626Z,5.95
2018-01-22T13:11:26.592Z,5.96
2018-01-22T13:12:26.566Z,5.95
2018-01-22T13:13:26.550Z,6.11
2018-01-22T13:14:26.533Z,6.10
2018-01-22T13:15:26.512Z,6.07
2018-01-22T13:16:26.489Z,6.04
2018-01-22T13:17:26.480Z,6.06
2018-01-22T13:18:26.467Z,6.06
2018-01-22T13:19:26.435Z,6.10